Time;durP1;ratioP1;P1;durP2;ratioP2;P2;SDS_P1;SDS_P2;PMS_P1;PMS_P2;Temp;Humidity;BMP_temperature;BMP_pressure;BME280_temperature;BME280_humidity;BME280_pressure;Samples;Min_cycle;Max_cycle;Signal;HPM_P1;HPM_P2
2022/10/06 00:01:44;;;;;;;;;;;15.40;99.90;;;;;;5074099;28;19905;-67
2022/10/06 00:04:09;;;;;;;;;;;15.40;99.90;;;;;;5074071;28;19962;-67
2022/10/06 00:06:35;;;;;;;;;;;15.40;99.90;;;;;;5072666;28;19991;-67
2022/10/06 00:09:00;;;;;;;;;;;15.40;99.90;;;;;;5074127;28;19967;-67
2022/10/06 00:11:26;;;;;;;;;;;15.30;99.90;;;;;;5073563;28;19998;-67
2022/10/06 00:13:52;;;;;;;;;;;15.30;99.90;;;;;;5073607;28;19908;-67
2022/10/06 00:16:21;;;;;;;;;;;15.30;99.90;;;;;;5073663;28;19923;-67
2022/10/06 00:18:46;;;;;;;;;;;15.40;99.90;;;;;;5074225;28;19912;-68
2022/10/06 00:21:12;;;;;;;;;;;15.40;99.90;;;;;;5073673;28;20373;-67
2022/10/06 00:23:37;;;;;;;;;;;15.40;99.90;;;;;;5073300;28;19967;-67
2022/10/06 00:26:03;;;;;;;;;;;15.50;99.90;;;;;;5073760;28;19904;-67
2022/10/06 00:28:28;;;;;;;;;;;15.50;99.90;;;;;;5073617;28;20454;-67
2022/10/06 00:30:55;;;;;;;;;;;15.50;99.90;;;;;;5073745;28;19939;-67
2022/10/06 00:33:21;;;;;;;;;;;15.50;99.90;;;;;;5073397;28;20200;-67
2022/10/06 00:35:46;;;;;;;;;;;15.50;99.90;;;;;;5073560;28;19927;-67
2022/10/06 00:38:13;;;;;;;;;;;15.50;99.90;;;;;;5073009;28;20414;-67
2022/10/06 00:40:46;;;;;;;;;;;15.50;99.90;;;;;;5073305;28;19954;-67
2022/10/06 00:43:30;;;;;;;;;;;15.50;99.90;;;;;;5072926;28;19912;-67
2022/10/06 00:45:56;;;;;;;;;;;15.50;99.90;;;;;;5073032;28;19958;-67
2022/10/06 00:48:22;;;;;;;;;;;15.50;99.90;;;;;;5073265;28;20343;-68
2022/10/06 00:50:50;;;;;;;;;;;15.50;99.90;;;;;;5072925;28;20003;-67
2022/10/06 00:53:15;;;;;;;;;;;15.50;99.90;;;;;;5072734;28;19909;-67
2022/10/06 00:55:41;;;;;;;;;;;15.50;99.90;;;;;;5073106;28;19954;-68
2022/10/06 00:58:08;;;;;;;;;;;15.60;99.90;;;;;;5073023;28;19940;-67
2022/10/06 01:00:34;;;;;;;;;;;15.60;99.90;;;;;;5073304;28;19950;-67
2022/10/06 01:03:10;;;;;;;;;;;15.60;99.90;;;;;;5072885;28;19908;-67
2022/10/06 01:05:40;;;;;;;;;;;15.60;99.90;;;;;;5072859;28;19940;-67
2022/10/06 01:08:06;;;;;;;;;;;15.60;99.90;;;;;;5071225;28;19911;-67
2022/10/06 01:10:32;;;;;;;;;;;15.60;99.90;;;;;;5073104;28;20333;-67
2022/10/06 01:12:58;;;;;;;;;;;15.60;99.90;;;;;;5071457;28;19911;-67
2022/10/06 01:15:24;;;;;;;;;;;15.60;99.90;;;;;;5072531;28;19934;-67
2022/10/06 01:18:01;;;;;;;;;;;15.60;99.90;;;;;;5072771;28;19920;-67
2022/10/06 01:20:28;;;;;;;;;;;15.60;99.90;;;;;;5073135;28;19928;-67
2022/10/06 01:22:54;;;;;;;;;;;15.70;99.90;;;;;;5072210;28;19918;-67
2022/10/06 01:25:20;;;;;;;;;;;15.70;99.90;;;;;;5072478;28;19912;-66
2022/10/06 01:27:52;;;;;;;;;;;15.70;99.90;;;;;;5072698;28;20416;-67
2022/10/06 01:30:38;;;;;;;;;;;15.70;99.90;;;;;;5072955;28;19998;-67
2022/10/06 01:33:03;;;;;;;;;;;15.70;99.90;;;;;;5072201;28;19927;-67
2022/10/06 01:35:29;;;;;;;;;;;15.60;99.90;;;;;;5072102;28;19917;-67
2022/10/06 01:37:57;;;;;;;;;;;15.60;99.90;;;;;;5072516;28;19904;-67
2022/10/06 01:40:25;;;;;;;;;;;15.60;99.90;;;;;;5072549;28;19936;-67
2022/10/06 01:42:51;;;;;;;;;;;15.60;99.90;;;;;;5072435;28;19912;-67
2022/10/06 01:45:16;;;;;;;;;;;15.50;99.90;;;;;;5072100;28;20244;-67
2022/10/06 01:47:42;;;;;;;;;;;15.40;99.90;;;;;;5072295;28;19908;-67
2022/10/06 01:50:07;;;;;;;;;;;15.40;99.90;;;;;;5072677;28;19904;-67
2022/10/06 01:52:34;;;;;;;;;;;15.40;99.90;;;;;;5070877;28;20038;-67
2022/10/06 01:54:59;;;;;;;;;;;15.40;99.90;;;;;;5072571;28;19912;-67
2022/10/06 01:57:25;;;;;;;;;;;15.40;99.90;;;;;;5076924;28;20409;-67
2022/10/06 01:59:50;;;;;;;;;;;15.40;99.90;;;;;;5076498;28;19908;-67
2022/10/06 02:02:16;;;;;;;;;;;15.50;99.90;;;;;;5076578;28;19904;-66
2022/10/06 02:04:42;;;;;;;;;;;15.50;99.90;;;;;;5076219;28;19904;-66
2022/10/06 02:07:08;;;;;;;;;;;15.50;99.90;;;;;;5076028;28;19904;-67
2022/10/06 02:09:33;;;;;;;;;;;15.60;99.90;;;;;;5076105;28;20491;-67
2022/10/06 02:11:59;;;;;;;;;;;15.60;99.90;;;;;;5075959;28;19908;-67
2022/10/06 02:14:24;;;;;;;;;;;15.60;99.90;;;;;;5076469;28;20367;-67
2022/10/06 02:16:50;;;;;;;;;;;15.60;99.90;;;;;;5075880;28;20272;-67
2022/10/06 02:19:16;;;;;;;;;;;15.60;99.90;;;;;;5076180;28;19909;-67
2022/10/06 02:21:41;;;;;;;;;;;15.60;99.90;;;;;;5075721;28;19915;-67
2022/10/06 02:24:07;;;;;;;;;;;15.60;99.90;;;;;;5075836;28;19905;-67
2022/10/06 02:26:32;;;;;;;;;;;15.60;99.90;;;;;;5076256;28;19904;-67
2022/10/06 02:28:58;;;;;;;;;;;15.60;99.90;;;;;;5075912;28;20007;-67
2022/10/06 02:31:23;;;;;;;;;;;15.60;99.90;;;;;;5075766;28;20278;-67
2022/10/06 02:33:50;;;;;;;;;;;15.70;99.90;;;;;;5074139;28;19912;-67
2022/10/06 02:36:16;;;;;;;;;;;15.60;99.90;;;;;;5075783;28;19950;-67
2022/10/06 02:38:42;;;;;;;;;;;15.60;99.90;;;;;;5074356;28;19911;-67
2022/10/06 02:41:09;;;;;;;;;;;15.70;99.90;;;;;;5075788;28;20366;-67
2022/10/06 02:43:35;;;;;;;;;;;15.70;99.90;;;;;;5075647;28;19950;-67
2022/10/06 02:46:02;;;;;;;;;;;15.70;99.90;;;;;;5075457;28;19995;-67
2022/10/06 02:48:28;;;;;;;;;;;15.80;99.90;;;;;;5075451;28;19908;-67
2022/10/06 02:50:53;;;;;;;;;;;15.80;99.90;;;;;;5075536;28;19914;-67
2022/10/06 02:53:19;;;;;;;;;;;15.80;99.90;;;;;;5075452;28;19908;-67
2022/10/06 02:55:45;;;;;;;;;;;15.80;99.90;;;;;;5075613;28;20289;-66
2022/10/06 02:58:10;;;;;;;;;;;15.80;99.90;;;;;;5075855;28;20347;-66
2022/10/06 03:00:36;;;;;;;;;;;15.80;99.90;;;;;;5075196;28;19904;-67
2022/10/06 03:03:01;;;;;;;;;;;15.80;99.90;;;;;;5075212;28;19967;-66
2022/10/06 03:05:27;;;;;;;;;;;15.80;99.90;;;;;;5075154;28;19995;-67
2022/10/06 03:07:52;;;;;;;;;;;15.90;99.90;;;;;;5074964;28;19904;-66
2022/10/06 03:10:18;;;;;;;;;;;15.80;99.90;;;;;;5075102;28;19958;-66
2022/10/06 03:12:44;;;;;;;;;;;15.80;99.90;;;;;;5075018;28;19957;-66
2022/10/06 03:15:09;;;;;;;;;;;15.90;99.90;;;;;;5075393;28;19916;-66
2022/10/06 03:17:35;;;;;;;;;;;15.80;99.90;;;;;;5074482;28;19923;-66
2022/10/06 03:20:00;;;;;;;;;;;15.80;99.90;;;;;;5075030;28;19949;-67
2022/10/06 03:22:26;;;;;;;;;;;15.80;99.90;;;;;;5075063;28;19904;-66
2022/10/06 03:24:51;;;;;;;;;;;15.90;99.90;;;;;;5075523;28;19908;-67
2022/10/06 03:27:17;;;;;;;;;;;15.90;99.90;;;;;;5075006;28;19904;-66
2022/10/06 03:29:42;;;;;;;;;;;15.80;99.90;;;;;;5073474;28;20003;-66
2022/10/06 03:32:08;;;;;;;;;;;15.90;99.90;;;;;;5074350;28;19955;-66
2022/10/06 03:34:33;;;;;;;;;;;15.90;99.90;;;;;;5075304;28;19916;-66
2022/10/06 03:36:59;;;;;;;;;;;15.90;99.90;;;;;;5074979;28;20346;-66
2022/10/06 03:39:24;;;;;;;;;;;15.90;99.90;;;;;;5074862;28;19966;-66
2022/10/06 03:41:50;;;;;;;;;;;15.90;99.90;;;;;;5074543;28;19908;-66
2022/10/06 03:44:15;;;;;;;;;;;15.90;99.90;;;;;;5074551;28;19975;-66
2022/10/06 03:46:41;;;;;;;;;;;15.90;99.90;;;;;;5074183;28;19950;-66
2022/10/06 03:49:07;;;;;;;;;;;15.90;99.90;;;;;;5074761;28;19910;-67
2022/10/06 03:51:33;;;;;;;;;;;15.90;99.90;;;;;;5074076;28;20033;-66
2022/10/06 03:53:59;;;;;;;;;;;15.90;99.90;;;;;;5074152;28;19955;-66
2022/10/06 03:56:27;;;;;;;;;;;15.90;99.90;;;;;;5074273;28;19912;-67
2022/10/06 03:58:58;;;;;;;;;;;15.90;99.90;;;;;;5074058;28;19904;-67
2022/10/06 04:01:38;;;;;;;;;;;16.00;99.90;;;;;;5074097;28;19909;-66
2022/10/06 04:04:04;;;;;;;;;;;16.00;99.90;;;;;;5074699;28;19904;-67
2022/10/06 04:06:31;;;;;;;;;;;16.00;99.90;;;;;;5074384;28;19973;-67
2022/10/06 04:08:57;;;;;;;;;;;16.00;99.90;;;;;;5074070;28;19908;-66
2022/10/06 04:11:27;;;;;;;;;;;16.00;99.90;;;;;;5074446;28;19919;-66
2022/10/06 04:14:03;;;;;;;;;;;16.00;99.90;;;;;;5073899;28;19909;-67
2022/10/06 04:16:30;;;;;;;;;;;16.00;99.90;;;;;;5073569;28;19946;-66
2022/10/06 04:18:56;;;;;;;;;;;16.00;99.90;;;;;;5073232;28;19913;-66
2022/10/06 04:21:22;;;;;;;;;;;16.00;99.90;;;;;;5074162;28;19905;-66
2022/10/06 04:23:48;;;;;;;;;;;16.00;99.90;;;;;;5073661;28;19904;-66
2022/10/06 04:26:16;;;;;;;;;;;16.00;99.90;;;;;;5073831;28;19938;-66
2022/10/06 04:28:42;;;;;;;;;;;16.00;99.90;;;;;;5073561;28;19905;-66
2022/10/06 04:31:19;;;;;;;;;;;16.00;99.90;;;;;;5073813;28;19904;-66
2022/10/06 04:33:46;;;;;;;;;;;16.00;99.90;;;;;;5073348;28;19908;-66
2022/10/06 04:36:13;;;;;;;;;;;16.10;99.90;;;;;;5073466;28;20006;-66
2022/10/06 04:38:39;;;;;;;;;;;16.00;99.90;;;;;;5073625;28;20351;-66
2022/10/06 04:41:07;;;;;;;;;;;16.10;99.90;;;;;;5073480;28;19948;-67
2022/10/06 04:43:33;;;;;;;;;;;16.10;99.90;;;;;;5073152;28;20387;-67
2022/10/06 04:45:59;;;;;;;;;;;16.10;99.90;;;;;;5072913;28;19931;-66
2022/10/06 04:48:25;;;;;;;;;;;16.10;99.90;;;;;;5073284;28;19908;-67
2022/10/06 04:50:55;;;;;;;;;;;16.10;99.90;;;;;;5073715;28;20015;-66
2022/10/06 04:53:20;;;;;;;;;;;16.20;99.90;;;;;;5073468;28;19908;-67
2022/10/06 04:55:46;;;;;;;;;;;16.10;99.90;;;;;;5073487;28;19915;-66
2022/10/06 04:58:11;;;;;;;;;;;16.10;99.90;;;;;;5073102;28;19963;-66
2022/10/06 05:00:37;;;;;;;;;;;16.20;99.90;;;;;;5073253;28;20004;-66
2022/10/06 05:03:02;;;;;;;;;;;16.20;99.90;;;;;;5073185;28;19911;-67
2022/10/06 05:05:29;;;;;;;;;;;16.20;99.90;;;;;;5072983;28;19949;-67
2022/10/06 05:07:54;;;;;;;;;;;16.20;99.90;;;;;;5072903;28;19942;-67
2022/10/06 05:10:20;;;;;;;;;;;16.20;99.90;;;;;;5073212;28;19989;-66
2022/10/06 05:12:46;;;;;;;;;;;16.20;99.90;;;;;;5072719;28;19912;-66
2022/10/06 05:15:11;;;;;;;;;;;16.20;99.90;;;;;;5072465;28;19919;-66
2022/10/06 05:17:37;;;;;;;;;;;16.20;99.90;;;;;;5072501;28;19916;-66
2022/10/06 05:20:02;;;;;;;;;;;16.20;99.90;;;;;;5072855;28;20279;-66
2022/10/06 05:22:28;;;;;;;;;;;16.20;99.90;;;;;;5073221;28;20002;-66
2022/10/06 05:24:53;;;;;;;;;;;16.20;99.90;;;;;;5072712;28;19950;-66
2022/10/06 05:27:19;;;;;;;;;;;16.20;99.90;;;;;;5072442;28;19912;-66
2022/10/06 05:29:45;;;;;;;;;;;16.20;99.90;;;;;;5072976;28;19904;-65
2022/10/06 05:32:11;;;;;;;;;;;16.20;99.90;;;;;;5072421;28;20333;-66
2022/10/06 05:34:37;;;;;;;;;;;16.20;99.90;;;;;;5072532;28;19912;-66
2022/10/06 05:37:03;;;;;;;;;;;16.20;99.90;;;;;;5072702;28;19904;-66
2022/10/06 05:39:28;;;;;;;;;;;16.20;99.90;;;;;;5072460;28;20282;-66
2022/10/06 05:41:54;;;;;;;;;;;16.20;99.90;;;;;;5072470;28;19949;-65
2022/10/06 05:44:20;;;;;;;;;;;16.20;99.90;;;;;;5071909;28;19971;-66
2022/10/06 05:46:46;;;;;;;;;;;16.20;99.90;;;;;;5072675;28;19913;-66
2022/10/06 05:49:12;;;;;;;;;;;16.20;99.90;;;;;;5072514;28;19904;-66
2022/10/06 05:51:41;;;;;;;;;;;16.20;99.90;;;;;;5072756;28;19904;-66
2022/10/06 05:54:06;;;;;;;;;;;16.20;99.90;;;;;;5072315;28;19913;-66
2022/10/06 05:56:33;;;;;;;;;;;16.20;99.90;;;;;;5072330;28;19912;-66
2022/10/06 05:58:59;;;;;;;;;;;16.20;99.90;;;;;;5072324;28;19908;-67
2022/10/06 06:01:25;;;;;;;;;;;16.20;99.90;;;;;;5072233;28;19910;-66
2022/10/06 06:03:54;;;;;;;;;;;16.20;99.90;;;;;;5072182;28;19904;-66
2022/10/06 06:06:22;;;;;;;;;;;16.20;99.90;;;;;;5072531;28;19913;-66
2022/10/06 06:08:50;;;;;;;;;;;16.30;99.90;;;;;;5072192;28;19904;-66
2022/10/06 06:11:15;;;;;;;;;;;16.20;99.90;;;;;;5071954;28;19904;-66
2022/10/06 06:13:41;;;;;;;;;;;16.20;99.90;;;;;;5071813;28;20347;-66
2022/10/06 06:16:11;;;;;;;;;;;16.30;99.90;;;;;;5072279;28;19999;-66
2022/10/06 06:18:36;;;;;;;;;;;16.30;99.90;;;;;;5072026;28;20267;-66
2022/10/06 06:21:03;;;;;;;;;;;16.30;99.90;;;;;;5072153;28;20002;-66
2022/10/06 06:23:30;;;;;;;;;;;16.30;99.90;;;;;;5071954;28;19944;-67
2022/10/06 06:26:06;;;;;;;;;;;16.30;99.90;;;;;;5072054;28;19915;-66
2022/10/06 06:28:31;;;;;;;;;;;16.30;99.90;;;;;;5072194;28;19904;-64
2022/10/06 06:31:05;;;;;;;;;;;16.30;99.90;;;;;;5071644;28;20415;-64
2022/10/06 06:33:32;;;;;;;;;;;16.30;99.90;;;;;;5072135;28;20445;-64
2022/10/06 06:35:59;;;;;;;;;;;16.30;99.90;;;;;;5070808;28;19904;-66
2022/10/06 06:38:25;;;;;;;;;;;16.30;99.90;;;;;;5070395;28;20340;-66
2022/10/06 06:40:51;;;;;;;;;;;16.30;99.90;;;;;;5071074;28;20070;-66
2022/10/06 06:43:16;;;;;;;;;;;16.30;99.90;;;;;;5075512;28;19908;-65
2022/10/06 06:45:42;;;;;;;;;;;16.30;99.90;;;;;;5075323;28;19909;-66
2022/10/06 06:48:12;;;;;;;;;;;16.30;99.90;;;;;;5075498;28;19904;-64
2022/10/06 06:50:37;;;;;;;;;;;16.40;99.90;;;;;;5075456;28;19908;-64
2022/10/06 06:53:03;;;;;;;;;;;16.40;99.90;;;;;;5075121;28;20359;-64
2022/10/06 06:55:28;;;;;;;;;;;16.40;99.90;;;;;;5075281;28;19912;-65
2022/10/06 06:57:54;;;;;;;;;;;16.40;99.90;;;;;;5074123;28;19995;-66
2022/10/06 07:00:22;;;;;;;;;;;16.40;99.90;;;;;;5075219;28;19912;-65
2022/10/06 07:02:54;;;;;;;;;;;16.40;99.90;;;;;;5075131;28;19912;-64
2022/10/06 07:05:21;;;;;;;;;;;16.40;99.90;;;;;;5075412;28;19915;-65
2022/10/06 07:07:46;;;;;;;;;;;16.50;99.90;;;;;;5074216;28;19904;-65
2022/10/06 07:10:12;;;;;;;;;;;16.50;99.90;;;;;;5075138;28;19915;-66
2022/10/06 07:12:38;;;;;;;;;;;16.50;99.90;;;;;;5075022;28;19922;-65
2022/10/06 07:26:01;;;;;;;;;;;16.30;99.90;;;;;;5074797;28;19912;-67
2022/10/06 07:28:29;;;;;;;;;;;16.10;99.90;;;;;;5074905;28;20286;-66
2022/10/06 07:30:55;;;;;;;;;;;16.10;99.90;;;;;;5074667;28;19911;-67
2022/10/06 07:33:21;;;;;;;;;;;16.10;99.90;;;;;;5074702;28;19915;-66
2022/10/06 07:35:46;;;;;;;;;;;16.10;99.90;;;;;;5074523;28;19913;-65
2022/10/06 07:38:12;;;;;;;;;;;16.00;99.90;;;;;;5074958;28;20321;-65
2022/10/06 07:40:37;;;;;;;;;;;15.90;99.90;;;;;;5074233;28;19905;-65
2022/10/06 07:43:03;;;;;;;;;;;15.90;99.90;;;;;;5074146;28;19904;-67
2022/10/06 07:45:37;;;;;;;;;;;15.80;99.90;;;;;;5074332;28;20010;-67
2022/10/06 07:48:17;;;;;;;;;;;15.70;99.90;;;;;;5074715;28;19904;-66
2022/10/06 07:50:44;;;;;;;;;;;15.70;99.90;;;;;;5074009;28;20396;-64
2022/10/06 07:53:10;;;;;;;;;;;15.70;99.90;;;;;;5072730;28;19927;-66
2022/10/06 07:55:38;;;;;;;;;;;15.60;99.90;;;;;;5074195;28;19916;-66
2022/10/06 07:58:12;;;;;;;;;;;15.70;99.90;;;;;;5074004;28;20421;-65
2022/10/06 08:00:38;;;;;;;;;;;15.60;99.90;;;;;;5073562;28;19999;-65
2022/10/06 08:03:03;;;;;;;;;;;15.60;99.90;;;;;;5073906;28;19943;-67
2022/10/06 08:05:29;;;;;;;;;;;15.70;99.90;;;;;;5072633;28;20291;-71
2022/10/06 08:07:55;;;;;;;;;;;15.60;99.90;;;;;;5073802;28;19904;-66
2022/10/06 08:10:21;;;;;;;;;;;15.70;99.90;;;;;;5074292;28;20424;-67
2022/10/06 08:12:47;;;;;;;;;;;15.80;99.90;;;;;;5073661;28;19904;-67
2022/10/06 08:15:13;;;;;;;;;;;15.80;99.90;;;;;;5073640;28;20298;-67
2022/10/06 08:17:39;;;;;;;;;;;15.80;99.90;;;;;;5073764;28;19924;-67
2022/10/06 08:20:05;;;;;;;;;;;15.80;99.90;;;;;;5073844;28;19912;-67
2022/10/06 08:22:31;;;;;;;;;;;15.80;99.90;;;;;;5073483;28;20030;-66
2022/10/06 08:24:57;;;;;;;;;;;15.80;99.90;;;;;;5073903;28;20011;-67
2022/10/06 08:27:27;;;;;;;;;;;15.70;99.90;;;;;;5073553;28;19920;-67
2022/10/06 08:29:53;;;;;;;;;;;15.60;99.90;;;;;;5073551;28;20373;-66
2022/10/06 08:32:19;;;;;;;;;;;15.80;99.90;;;;;;5072049;28;20279;-66
2022/10/06 08:34:46;;;;;;;;;;;15.70;99.90;;;;;;5073396;28;20013;-67
2022/10/06 08:37:11;;;;;;;;;;;15.70;99.90;;;;;;5073061;28;20374;-66
2022/10/06 08:39:37;;;;;;;;;;;15.70;99.90;;;;;;5073324;28;19943;-66
2022/10/06 08:42:02;;;;;;;;;;;15.90;99.90;;;;;;5073335;28;19904;-66
2022/10/06 08:44:45;;;;;;;;;;;15.90;99.90;;;;;;5073265;28;20388;-66
2022/10/06 08:47:12;;;;;;;;;;;15.80;99.90;;;;;;5073664;28;19904;-66
2022/10/06 08:49:48;;;;;;;;;;;15.90;99.90;;;;;;5072752;28;19936;-65
2022/10/06 08:52:13;;;;;;;;;;;16.00;99.90;;;;;;5072268;28;19955;-66
2022/10/06 08:54:44;;;;;;;;;;;16.10;99.90;;;;;;5072201;28;19967;-66
2022/10/06 08:57:19;;;;;;;;;;;16.00;99.90;;;;;;5072784;28;19908;-66
2022/10/06 08:59:46;;;;;;;;;;;16.00;99.90;;;;;;5073060;28;19905;-66
2022/10/06 09:02:22;;;;;;;;;;;16.10;99.90;;;;;;5072682;28;20379;-64
2022/10/06 09:04:49;;;;;;;;;;;16.10;99.90;;;;;;5072470;28;19905;-64
2022/10/06 09:07:23;;;;;;;;;;;16.20;99.90;;;;;;5072531;28;20379;-65
2022/10/06 09:09:55;;;;;;;;;;;16.20;99.90;;;;;;5072910;28;19983;-64
2022/10/06 09:12:33;;;;;;;;;;;16.20;99.90;;;;;;5072982;28;19904;-65
2022/10/06 09:15:28;;;;;;;;;;;16.30;99.90;;;;;;5072587;28;19912;-65
2022/10/06 09:18:00;;;;;;;;;;;16.50;99.90;;;;;;5059010;28;19916;-63
2022/10/06 09:20:34;;;;;;;;;;;16.20;99.90;;;;;;5072551;28;19908;-65
2022/10/06 09:23:02;;;;;;;;;;;16.20;99.90;;;;;;5072499;28;19908;-64
2022/10/06 09:25:28;;;;;;;;;;;16.30;99.90;;;;;;5072534;28;19904;-65
2022/10/06 09:27:55;;;;;;;;;;;16.40;99.90;;;;;;5072471;28;20374;-66
2022/10/06 09:30:21;;;;;;;;;;;16.40;99.90;;;;;;5072629;28;19916;-65
2022/10/06 09:32:50;;;;;;;;;;;16.60;99.90;;;;;;5072444;28;19904;-64
2022/10/06 09:35:17;;;;;;;;;;;16.60;99.90;;;;;;5072167;28;19913;-65
2022/10/06 09:37:55;;;;;;;;;;;16.70;99.90;;;;;;5072312;28;20010;-64
2022/10/06 09:40:38;;;;;;;;;;;16.60;99.90;;;;;;5072546;28;19904;-63
2022/10/06 09:43:15;;;;;;;;;;;16.60;99.90;;;;;;5072374;28;19905;-67
2022/10/06 09:45:41;;;;;;;;;;;16.70;99.90;;;;;;5072158;28;19904;-67
2022/10/06 09:48:22;;;;;;;;;;;17.00;99.90;;;;;;5072480;28;19915;-64
2022/10/06 09:51:10;;;;;;;;;;;17.00;99.90;;;;;;5071605;28;19904;-66
2022/10/06 09:53:38;;;;;;;;;;;17.00;99.90;;;;;;5072510;28;19916;-65
2022/10/06 09:56:08;;;;;;;;;;;17.10;99.90;;;;;;5072093;28;20290;-66
2022/10/06 09:58:36;;;;;;;;;;;17.10;99.90;;;;;;5072137;28;19905;-65
2022/10/06 10:01:04;;;;;;;;;;;17.30;99.90;;;;;;5072225;28;19904;-65
2022/10/06 10:03:50;;;;;;;;;;;17.60;99.90;;;;;;5072164;28;20402;-67
2022/10/06 10:06:22;;;;;;;;;;;17.20;99.90;;;;;;5072444;28;20026;-67
2022/10/06 10:08:47;;;;;;;;;;;17.30;99.90;;;;;;5071886;28;19904;-66
2022/10/06 10:14:14;;;;;;;;;;;17.30;99.90;;;;;;5072265;28;19915;-66
2022/10/06 10:16:40;;;;;;;;;;;17.40;99.90;;;;;;5073259;28;19916;-66
2022/10/06 10:19:18;;;;;;;;;;;17.30;99.90;;;;;;5076127;28;19920;-66
2022/10/06 10:21:44;;;;;;;;;;;17.30;99.90;;;;;;5075998;28;20235;-66
2022/10/06 10:24:14;;;;;;;;;;;17.60;99.90;;;;;;5075746;28;19963;-66
2022/10/06 10:26:39;;;;;;;;;;;17.80;99.90;;;;;;5076067;28;20000;-66
2022/10/06 10:29:13;;;;;;;;;;;17.80;99.90;;;;;;5075746;28;19990;-66
2022/10/06 10:31:39;;;;;;;;;;;18.00;99.90;;;;;;5075719;28;20289;-66
2022/10/06 10:34:05;;;;;;;;;;;17.80;99.90;;;;;;5075250;28;19908;-66
2022/10/06 10:36:38;;;;;;;;;;;17.80;99.90;;;;;;5075700;28;19909;-66
2022/10/06 10:39:08;;;;;;;;;;;18.10;99.90;;;;;;5076283;28;19905;-66
2022/10/06 10:41:40;;;;;;;;;;;18.10;99.90;;;;;;5075776;28;19954;-66
2022/10/06 10:44:08;;;;;;;;;;;17.80;99.90;;;;;;5075544;28;19904;-65
2022/10/06 10:46:46;;;;;;;;;;;17.70;99.90;;;;;;5075278;28;19905;-66
2022/10/06 10:49:17;;;;;;;;;;;17.60;99.90;;;;;;5075145;28;20311;-67
2022/10/06 10:51:52;;;;;;;;;;;17.40;99.90;;;;;;5075573;28;19958;-66
2022/10/06 10:54:23;;;;;;;;;;;17.40;99.90;;;;;;5074923;28;19916;-66
2022/10/06 10:56:50;;;;;;;;;;;17.40;99.90;;;;;;5075399;28;19950;-66
2022/10/06 10:59:15;;;;;;;;;;;17.20;99.90;;;;;;5075365;28;19999;-66
2022/10/06 11:01:41;;;;;;;;;;;17.30;99.90;;;;;;5075301;28;20054;-66
2022/10/06 11:04:12;;;;;;;;;;;17.30;99.90;;;;;;5075248;28;20338;-66
2022/10/06 11:06:56;;;;;;;;;;;17.50;99.90;;;;;;5075286;28;19904;-66
2022/10/06 11:09:30;;;;;;;;;;;17.60;99.90;;;;;;5075134;28;19931;-66
2022/10/06 11:12:02;;;;;;;;;;;18.10;99.90;;;;;;5075191;28;19904;-65
2022/10/06 11:14:47;;;;;;;;;;;18.20;99.90;;;;;;5074894;28;19962;-66
2022/10/06 11:17:42;;;;;;;;;;;18.50;99.90;;;;;;5074522;28;19920;-64
2022/10/06 11:20:15;;;;;;;;;;;18.40;99.90;;;;;;5068620;28;19908;-65
2022/10/06 11:22:46;;;;;;;;;;;18.60;99.90;;;;;;5074232;28;19912;-66
2022/10/06 11:25:18;;;;;;;;;;;18.50;99.90;;;;;;5074900;28;19931;-66
2022/10/06 11:27:46;;;;;;;;;;;18.10;99.90;;;;;;5074403;28;19909;-65
2022/10/06 11:30:12;;;;;;;;;;;18.20;99.90;;;;;;5074742;28;19909;-65
2022/10/06 11:32:44;;;;;;;;;;;18.60;99.90;;;;;;5073901;28;20003;-65
2022/10/06 11:35:23;;;;;;;;;;;18.70;99.90;;;;;;5074603;28;19913;-65
2022/10/06 11:37:52;;;;;;;;;;;18.60;99.90;;;;;;5074576;28;19904;-65
2022/10/06 11:40:23;;;;;;;;;;;18.80;99.90;;;;;;5074769;28;19908;-65
2022/10/06 11:42:51;;;;;;;;;;;19.10;99.90;;;;;;5074445;28;19911;-65
2022/10/06 11:45:22;;;;;;;;;;;19.30;99.90;;;;;;5074053;28;19912;-65
2022/10/06 11:47:53;;;;;;;;;;;19.30;99.90;;;;;;5075036;28;20007;-65
2022/10/06 11:50:32;;;;;;;;;;;19.70;99.90;;;;;;5074149;28;19999;-65
2022/10/06 11:52:57;;;;;;;;;;;19.90;99.90;;;;;;5074489;28;19918;-65
2022/10/06 11:55:25;;;;;;;;;;;19.90;99.90;;;;;;5074133;28;20003;-65
2022/10/06 11:58:03;;;;;;;;;;;20.20;99.90;;;;;;5074216;28;20408;-65
2022/10/06 12:00:31;;;;;;;;;;;19.80;99.90;;;;;;5073974;28;20286;-65
2022/10/06 12:03:16;;;;;;;;;;;20.20;99.90;;;;;;5074063;28;19904;-65
2022/10/06 12:05:42;;;;;;;;;;;19.90;99.90;;;;;;5073911;28;19911;-65
2022/10/06 12:08:07;;;;;;;;;;;20.20;99.90;;;;;;5074274;28;19905;-65
2022/10/06 12:10:33;;;;;;;;;;;20.20;99.90;;;;;;5073908;28;19904;-65
2022/10/06 12:13:08;;;;;;;;;;;20.40;99.90;;;;;;5074389;28;19904;-65
2022/10/06 12:15:42;;;;;;;;;;;20.20;99.90;;;;;;5073527;28;20468;-65
2022/10/06 12:18:20;;;;;;;;;;;20.00;99.90;;;;;;5073733;28;20007;-65
2022/10/06 12:20:46;;;;;;;;;;;20.10;99.90;;;;;;5073665;28;20003;-64
2022/10/06 12:23:14;;;;;;;;;;;19.90;99.90;;;;;;5073816;28;20011;-65
2022/10/06 12:25:52;;;;;;;;;;;20.00;99.90;;;;;;5073746;28;20262;-65
2022/10/06 12:28:34;;;;;;;;;;;19.70;99.90;;;;;;5073951;28;19905;-65
2022/10/06 12:31:02;;;;;;;;;;;19.50;99.90;;;;;;5073584;28;19904;-65
2022/10/06 12:33:36;;;;;;;;;;;19.50;99.90;;;;;;5073508;28;19911;-65
2022/10/06 12:36:03;;;;;;;;;;;19.50;99.90;;;;;;5073812;28;19912;-65
2022/10/06 12:38:40;;;;;;;;;;;19.60;99.90;;;;;;5073307;28;19904;-65
2022/10/06 12:41:12;;;;;;;;;;;19.60;99.90;;;;;;5073097;28;20290;-65
2022/10/06 12:43:52;;;;;;;;;;;19.40;99.90;;;;;;5073124;28;19909;-65
2022/10/06 12:46:23;;;;;;;;;;;19.50;99.90;;;;;;5073527;28;20400;-62
2022/10/06 12:49:01;;;;;;;;;;;20.10;99.90;;;;;;5073631;28;19908;-65
2022/10/06 12:51:26;;;;;;;;;;;20.00;99.90;;;;;;5073154;28;20007;-65
2022/10/06 12:54:11;;;;;;;;;;;20.10;99.90;;;;;;5071614;28;20382;-65
2022/10/06 12:56:40;;;;;;;;;;;20.20;99.90;;;;;;5072737;28;20038;-65
2022/10/06 12:59:19;;;;;;;;;;;20.50;99.90;;;;;;5072679;28;19904;-65
2022/10/06 13:01:46;;;;;;;;;;;20.40;99.90;;;;;;5073042;28;20277;-65
2022/10/06 13:04:44;;;;;;;;;;;20.40;99.90;;;;;;5073318;28;20358;-64
2022/10/06 13:07:12;;;;;;;;;;;20.60;99.90;;;;;;4992044;28;19910;-65
2022/10/06 13:09:38;;;;;;;;;;;20.70;99.90;;;;;;4991271;28;19910;-65
2022/10/06 13:12:22;;;;;;;;;;;20.80;99.90;;;;;;4990910;28;19917;-64
2022/10/06 13:15:07;;;;;;;;;;;21.00;99.90;;;;;;4991643;28;19983;-65
2022/10/06 13:17:32;;;;;;;;;;;20.90;99.90;;;;;;4991209;28;19972;-65
2022/10/06 13:19:58;;;;;;;;;;;21.00;99.90;;;;;;4991360;28;19905;-65
2022/10/06 13:22:24;;;;;;;;;;;21.10;99.90;;;;;;4991275;28;19905;-65
2022/10/06 13:24:49;;;;;;;;;;;21.00;99.90;;;;;;4991287;28;19909;-65
2022/10/06 13:27:16;;;;;;;;;;;21.70;99.90;;;;;;4990876;28;19916;-65
2022/10/06 13:29:42;;;;;;;;;;;22.00;99.90;;;;;;4991049;28;20000;-65
2022/10/06 13:32:16;;;;;;;;;;;21.40;99.90;;;;;;4991532;28;19997;-65
2022/10/06 13:34:42;;;;;;;;;;;21.50;99.90;;;;;;4991267;28;19920;-65
2022/10/06 13:37:11;;;;;;;;;;;21.10;99.90;;;;;;4991041;28;20423;-65
2022/10/06 13:39:37;;;;;;;;;;;21.50;99.90;;;;;;4990950;28;20465;-65
2022/10/06 13:42:07;;;;;;;;;;;21.40;99.90;;;;;;5003798;28;19991;-65
2022/10/06 13:44:41;;;;;;;;;;;21.40;99.90;;;;;;5055195;28;19912;-64
2022/10/06 13:47:14;;;;;;;;;;;21.00;99.90;;;;;;5072465;28;20274;-65
2022/10/06 13:49:43;;;;;;;;;;;20.70;99.90;;;;;;5072471;28;19912;-65
2022/10/06 13:52:16;;;;;;;;;;;21.10;99.90;;;;;;5071833;28;19927;-65
2022/10/06 13:54:59;;;;;;;;;;;21.30;99.90;;;;;;5071912;28;19908;-65
2022/10/06 13:57:35;;;;;;;;;;;21.10;99.90;;;;;;5071995;28;19905;-66
2022/10/06 14:00:21;;;;;;;;;;;21.30;99.90;;;;;;5072234;28;19916;-65
2022/10/06 14:02:52;;;;;;;;;;;21.10;99.90;;;;;;5071768;28;19915;-65
2022/10/06 14:05:19;;;;;;;;;;;21.30;99.90;;;;;;5072658;28;19904;-65
2022/10/06 14:07:45;;;;;;;;;;;21.10;99.90;;;;;;5072135;28;19947;-65
2022/10/06 14:10:29;;;;;;;;;;;20.90;99.90;;;;;;5072435;28;19939;-66
2022/10/06 14:12:57;;;;;;;;;;;20.80;99.90;;;;;;5052106;28;20384;-64
2022/10/06 14:15:24;;;;;;;;;;;21.00;99.90;;;;;;5052258;28;19919;-65
2022/10/06 14:17:54;;;;;;;;;;;20.70;99.90;;;;;;5052058;28;19944;-65
2022/10/06 14:20:36;;;;;;;;;;;20.70;99.90;;;;;;5052306;28;19905;-64
2022/10/06 14:23:22;;;;;;;;;;;20.90;99.90;;;;;;5052035;28;19904;-65
2022/10/06 14:25:48;;;;;;;;;;;21.30;99.90;;;;;;5051765;28;19905;-65
2022/10/06 14:28:13;;;;;;;;;;;21.30;99.90;;;;;;5052077;28;19915;-64
2022/10/06 14:30:39;;;;;;;;;;;21.10;99.90;;;;;;5052070;28;20334;-65
2022/10/06 14:33:05;;;;;;;;;;;21.10;99.90;;;;;;5052048;28;20300;-65
2022/10/06 14:35:30;;;;;;;;;;;20.90;99.90;;;;;;5051847;28;19978;-65
2022/10/06 14:37:56;;;;;;;;;;;20.70;99.90;;;;;;5052289;28;19911;-65
2022/10/06 14:40:21;;;;;;;;;;;20.80;99.90;;;;;;5051728;28;19905;-65